Oihan López

Olheiro-Chefe - Real Sociedad
19 Ago 2027
Quinta-feira
Processo

Personalidade

Adaptabilidade (6) Ambição (6) Controvérsia (12) Lealdade (19) Pressão (11) Profissionalismo (1) Espírito Esportivo (4) Temperamento (18)

Perfil

Estilo de Treinamento Democrático
Licença Continental C
Determinação 8
Gestão de Pessoas 8
Motivação 11
Disciplina 8
Satisfação no Trabalho
100%
Fadiga
0%
Função Olheiro-Chefe
Salário 98.1K p/s
Contrato 14.03.2030

Desempenho

Comportamento Bom
Eficácia do Treinamento
51%
Desenvolvimento do Jogador
60%
Prevenção de Lesões
75%
Implementação Tática
65%

Eventos Recentes

Avaliou um jogador agora
Participou de uma reunião de recrutamento agora
Avaliou um jogador 7d atrás
Participou de uma reunião de recrutamento 7d atrás
Participou de uma reunião de recrutamento 7d atrás
Participou de uma reunião de recrutamento 14d atrás
Participou de uma reunião de recrutamento 14d atrás
Avaliou um jogador 14d atrás

Monitorando agora

169
Jogador Clube Status Habilidade Confiança Observado Última observação Último voto
Javi Rodríguez Celta Ativo 148 / 148 40% 2 16.08.2027 -
Kike Salas Sevilla Ativo 139 / 143 40% 1 16.08.2027 -
Finley McAllister Grimsby Town Ativo 102 / 96 40% 1 09.08.2027 -
Tobias Slotsager Casertana Ativo 112 / 116 40% 1 03.08.2027 -
Christ Inao Oulaï Fiorentina Ativo 145 / 148 40% 1 03.08.2027 -
Jofre Torrents Ajax Ativo 138 / 140 40% 2 26.07.2027 -
Juan Giménez Celta Ativo 113 / 126 40% 2 26.07.2027 -
Nahuel Leivas Montevideo City Torque Ativo 109 / 108 40% 1 19.07.2027 -
Johan Manzambi Newcastle United Ativo 142 / 150 40% 1 19.07.2027 -
Jorrel Hato Chelsea Ativo 160 / 158 40% 3 12.07.2027 -
Toni Tamarit Alverca Ativo 116 / 129 40% 1 12.07.2027 -
João Simões Sporting CP Ativo 143 / 137 40% 4 05.07.2027 -
Daniel Kelly Oxford United Ativo 115 / 123 40% 1 05.07.2027 -
Ez Abde Girona Ativo 157 / 154 40% 1 21.06.2027 -
Assane Diao Lazio Negociando 157 / 150 40% 1 21.06.2027 -
Maren Kefas Plateau United Ativo 85 / 97 40% 1 16.06.2027 -
Iwan Morgan Grimsby Town Perdido 121 / 116 40% 1 16.06.2027 -
Reuben Reid Barnsley Ativo 90 / 106 40% 1 14.06.2027 -
Fletcher Holman Swindon Town Ativo 84 / 87 40% 1 14.06.2027 -
Tiziano Dornell Danubio Ativo 110 / 127 40% 1 07.06.2027 -
Othmane Maamma Watford Ativo 121 / 123 40% 2 06.06.2027 -
Luís Guilherme Sporting CP Perdido 138 / 130 40% 1 03.06.2027 -
Mfundo Vilakazi Kaizer Chiefs Perdido 121 / 112 40% 1 02.06.2027 -
Rodrigo Mora AS Roma Ativo 133 / 141 40% 1 01.06.2027 -
Raúl Rangel Sporting CP Ativo 129 / 139 40% 2 30.05.2027 -
Beau Reus Waasland-Beveren Ativo 137 / 126 40% 5 29.05.2027 -
Berke Özer LOSC Lille Ativo 135 / 137 40% 2 29.05.2027 -
Ricky Atletico Venezuela Ativo 105 / 104 40% 1 29.05.2027 -
Darryl Bakola Padova Ativo 99 / 116 40% 1 29.05.2027 -
Radek Vítek Middlesbrough Ativo 147 / 144 40% 4 27.05.2027 -
Franco Israel Torino Ativo 132 / 134 40% 2 27.05.2027 -
Mads Hermansen West Ham United Ativo 152 / 142 40% 4 24.05.2027 -
Erick Reyes Toluca Ativo 140 / 137 40% 3 24.05.2027 -
Jonathan Fischer FC Metz Ativo 124 / 136 40% 2 23.05.2027 -
Kevin Vazquez Cruz Azul Ativo 132 / 144 40% 9 22.05.2027 -
Felipe Parra Envigado Ativo 120 / 127 40% 1 22.05.2027 -
Lorenzo Palmisani Frosinone Ativo 125 / 138 40% 6 20.05.2027 -
Yusi Alavés Ativo 119 / 138 40% 2 20.05.2027 -
Ernie Weaver AFC Wimbledon Ativo 99 / 122 40% 1 20.05.2027 -
Fernando Tapia Club America Ativo 123 / 143 40% 1 20.05.2027 -
Thulani Erasmus Platinum Stars Ativo 105 / 102 40% 1 20.05.2027 -
Ethan Williams Peterborough United Ativo 109 / 113 40% 1 20.05.2027 -
Thomas De Bruyne Mouscron Ativo 134 / 126 40% 2 18.05.2027 -
Afonso Assis Moreirense Ativo 119 / 122 40% 2 17.05.2027 -
Keisuke Osako Sanfrecce Hiroshima Ativo 151 / 132 40% 1 14.05.2027 -
Julen Agirrezabala Racing Santander Ativo 150 / 146 40% 5 11.05.2027 -
João Teixeira Porto Ativo 115 / 112 40% 3 10.05.2027 -
Davide Bartesaghi AC Milan Ativo 121 / 132 40% 1 10.05.2027 -
Robin Roefs Sunderland Ativo 148 / 144 40% 2 09.05.2027 -
Joan García Barcelona Ativo 179 / 161 40% 3 06.05.2027 -
Bento Al-Nassr Ativo 146 / 143 40% 2 04.05.2027 -
Oliver Dovin Coventry City Ativo 119 / 123 40% 3 03.05.2027 -
Diego Romero Universitario Ativo 114 / 132 40% 2 02.05.2027 -
Yehvann Diouf OGC Nice Ativo 143 / 139 40% 2 28.04.2027 -
Senne Lammens Manchester United Ativo 151 / 147 40% 3 26.04.2027 -
Cezary Miszta Rio Ave Ativo 142 / 132 40% 4 25.04.2027 -
Warren Zaïre-Emery Paris Saint-Germain Ativo 146 / 167 40% 3 21.04.2027 -
Edoardo Motta Lazio Ativo 122 / 127 40% 1 19.04.2027 -
Christos Mouzakitis Hull City Ativo 120 / 139 40% 2 16.04.2027 -
Guillaume Restes Toulouse FC Ativo 136 / 145 40% 4 16.04.2027 -
Matías Gómez Granada Ativo 102 / 125 40% 2 16.04.2027 -
Maduka Okoye Udinese Ativo 147 / 140 40% 3 10.04.2027 -
Kostantis Tzolakis Hull City Ativo 139 / 146 40% 1 07.04.2027 Mais informações
Niklas Hedl Zurich Ativo 123 / 120 40% 1 05.04.2027 -
Guilherme Fernandes Córdoba Ativo 133 / 128 40% 2 04.04.2027 -
Ibrahim Maza Bayer Leverkusen Ativo 146 / 149 40% 2 01.04.2027 -
Rayan Bournemouth Ativo 125 / 143 40% 1 28.03.2027 -
Anatolii Trubin Juventus Ativo 149 / 158 40% 1 24.03.2027 -
Josh King Chelsea Ativo 148 / 139 40% 1 23.03.2027 -
James Trafford Leeds United Ativo 139 / 147 40% 2 20.03.2027 -
Pablo Campos Levante Ativo 137 / 127 40% 1 19.03.2027 -
Lucas Høgsberg RC Strasbourg Ativo 143 / 142 40% 2 17.03.2027 -
Joaquin Seys Club Brugge Ativo 121 / 126 40% 1 17.03.2027 -
Didier Mercier Chamois Niortais Ativo 118 / 123 40% 1 16.03.2027 -
Michael Cooper Sheffield United Ativo 130 / 130 40% 1 16.03.2027 -
Jonmi Magunagoitia Eibar Ativo 117 / 133 40% 2 12.03.2027 -
David Ozoh Derby County Ativo 126 / 127 40% 1 12.03.2027 -
Riley Owen Trento Ativo 99 / 114 40% 1 11.03.2027 -
Bernardo Lima Porto Ativo 96 / 100 40% 1 11.03.2027 -
Jan Virgili Club Brugge Ativo 134 / 137 40% 1 10.03.2027 -
James Dornelly Peterborough United Ativo 101 / 108 40% 2 09.03.2027 -
Senny Mayulu Paris Saint-Germain Ativo 134 / 156 40% 1 09.03.2027 -
Yussif Saidu Zaragoza Ativo 122 / 121 40% 2 08.03.2027 -
Jamie Cumming Oxford United Ativo 119 / 125 40% 1 05.03.2027 -
Manuel Roffo Cerro Porteno Ativo 141 / 133 40% 1 05.03.2027 -
Elías Rafn Ólafsson FC Midtjylland Ativo 122 / 115 40% 1 04.03.2027 -
Sascha Britschgi Padova Ativo 108 / 132 40% 1 02.03.2027 -
Dylan Lawlor Cardiff City Ativo 124 / 118 40% 2 01.03.2027 -
Mateusz Kochalski Dynamo Kyiv Ativo 119 / 138 40% 1 28.02.2027 -
Grégoire Coudert Burnley Ativo 139 / 127 40% 1 26.02.2027 -
Deniz Ertaş Konyaspor Ativo 113 / 115 40% 1 21.02.2027 -
Keagan Tau Ajax Cape Town Ativo 83 / 111 40% 1 17.02.2027 -
Lazar Carević Famalicao Ativo 140 / 134 40% 1 16.02.2027 -
Caleb Yirenkyi Coventry City Ativo 129 / 142 40% 1 10.02.2027 -
Daniel Vernattus Metalist Ativo 73 / 102 40% 1 07.02.2027 -
Patrick Sequeira Casa Pia Ativo 132 / 132 40% 1 05.02.2027 -
Andriy Lunin Real Madrid Ativo 161 / 155 40% 1 02.02.2027 -
Tiago Santos LOSC Lille Ativo 143 / 138 40% 1 28.01.2027 -
Omar Campos Cruz Azul Ativo 117 / 132 40% 3 30.12.2026 -
Brahim Díaz Real Madrid Ativo 151 / 152 40% 3 30.12.2026 -
Kang-In Lee Atlético Madrid Ativo 151 / 156 40% 4 29.12.2026 -
Giacomo Raspadori Atalanta Ativo 151 / 149 40% 1 29.12.2026 -
Paulinho Palmeiras Ativo 138 / 140 40% 4 26.12.2026 -
Pablo Barrios Atlético Madrid Ativo 161 / 166 40% 3 23.12.2026 -
Efraín Álvarez Guadalajara Ativo 127 / 127 40% 2 23.12.2026 -
Erick Sánchez OGC Nice Ativo 132 / 136 40% 5 22.12.2026 -
Ramiro Sordo Santos Laguna Ativo 104 / 114 40% 1 22.12.2026 -
Callum Hudson-Odoi Nottingham Forest Ativo 152 / 144 40% 1 21.12.2026 -
Jonathan Dubasin Osasuna Ativo 148 / 136 40% 1 21.12.2026 -
Álex Baena Atlético Madrid Ativo 159 / 158 40% 2 18.12.2026 -
Iliman N'Diaye Everton Ativo 157 / 151 40% 3 17.12.2026 -
Mason Mount Manchester United Ativo 142 / 149 40% 1 17.12.2026 -
Ozziel Herrera Tigres Ativo 130 / 133 40% 2 15.12.2026 -
Eduardo Dos Santos Veracruz Ativo 108 / 113 40% 2 14.12.2026 -
Jude Bellingham Real Madrid Ativo 165 / 175 40% 1 14.12.2026 -
Matt O'Riley Brighton Ativo 143 / 141 40% 1 12.12.2026 -
Gabriel Martinelli Brighton Ativo 163 / 159 40% 2 10.12.2026 -
Diego Lainez Tigres Ativo 112 / 119 40% 4 08.12.2026 -
Marquinhos Spartak Moscow Ativo 143 / 122 40% 1 08.12.2026 -
Bryan Gil Girona Ativo 135 / 145 40% 1 05.12.2026 -
Nicolas Jackson Aston Villa Ativo 139 / 151 40% 1 05.12.2026 -
Tani Oluwaseyi Villarreal Ativo 136 / 143 40% 1 02.12.2026 -
Kevin Fulham Ativo 137 / 148 40% 1 01.12.2026 -
Tom Fellows Southampton Ativo 129 / 127 40% 2 27.11.2026 -
Pedro Vite Pumas UNAM Ativo 135 / 115 40% 1 27.11.2026 -
Martin Ødegaard Arsenal Ativo 177 / 182 40% 3 24.11.2026 -
Nicolás Castro Toluca Ativo 121 / 125 40% 1 23.11.2026 -
Pol Lozano Espanyol Ativo 141 / 143 40% 1 23.11.2026 -
Rodrygo Real Madrid Ativo 160 / 164 40% 2 21.11.2026 -
Ramiro Ruiz Rodríguez Atlético Tucumán Ativo 127 / 126 40% 3 21.11.2026 -
Joaquín Gho Argentinos Juniors Ativo 118 / 123 40% 3 18.11.2026 -
Ezequiel Bullaude Santos Laguna Ativo 135 / 129 40% 1 17.11.2026 -
Brian Gutiérrez Guadalajara Ativo 120 / 132 40% 1 16.11.2026 -
Alex Luna Instituto Ativo 129 / 129 40% 1 12.11.2026 -
Rayan Cherki Manchester City Ativo 171 / 163 40% 2 11.11.2026 -
Carlos Vicente Birmingham Ativo 152 / 136 40% 3 10.11.2026 -
Johnny Cardoso Atlético Madrid Ativo 154 / 157 40% 1 10.11.2026 -
Tiago Palacios Estudiantes Ativo 123 / 126 40% 2 09.11.2026 -
Carlos Palacios Boca Juniors Ativo 123 / 129 40% 3 05.11.2026 -
João Pedro Chelsea Ativo 163 / 146 40% 1 05.11.2026 -
Aimar Osasuna Ativo 136 / 143 40% 1 23.10.2026 -
Enzo Fernández Manchester City Ativo 173 / 165 40% 1 22.10.2026 -
Matko Miljevic Racing Club Ativo 136 / 121 40% 1 22.10.2026 -
Alan Velasco Boca Juniors Ativo 129 / 122 40% 1 21.10.2026 -
Mateo Zuleta Once Caldas Ativo 110 / 126 40% 1 20.10.2026 -
Hector Ramirez Newcastle United Ativo 158 / 159 40% 3 19.10.2026 -
Bryan González Guadalajara Ativo 111 / 136 40% 2 16.10.2026 -
Iker Benito Queretaro Ativo 105 / 112 40% 2 14.10.2026 -
César Ibáñez Huracán Ativo 129 / 118 40% 1 10.10.2026 -
Moisés Caicedo Chelsea Ativo 168 / 177 40% 1 10.10.2026 -
Adalberto Carrasquilla Pumas UNAM Ativo 113 / 115 40% 1 08.10.2026 -
Fidel Ambríz Monterrey Ativo 109 / 126 40% 1 07.10.2026 -
Alexander Díaz Deportivo Riestra Ativo 128 / 111 40% 1 01.10.2026 -
Santiago Montiel Independiente Ativo 118 / 119 40% 2 28.09.2026 -
Brian Rodríguez Club America Ativo 130 / 121 40% 1 28.09.2026 -
Axel Batista Quilmes Ativo 122 / 120 40% 1 26.09.2026 -
Juan Manuel Zapata Envigado Ativo 106 / 111 40% 1 26.09.2026 -
Matías Fernández Independiente Rivadavia Ativo 132 / 127 40% 2 24.09.2026 -
Boubacar Kamara Aston Villa Ativo 151 / 158 40% 1 24.09.2026 -
Juan Pablo Domínguez Leon Ativo 119 / 128 40% 1 20.09.2026 -
Alexis Cuello San Lorenzo Ativo 135 / 121 40% 1 16.09.2026 -
Kai Havertz Arsenal Ativo 168 / 165 40% 1 11.09.2026 -
Eduardo Camavinga Real Madrid Ativo 161 / 172 40% 1 10.09.2026 -
Pedri Barcelona Ativo 181 / 175 40% 1 09.09.2026 -
Reece James Chelsea Ativo 175 / 172 40% 1 08.09.2026 -
Alan Forneris Racing Club Ativo 110 / 116 40% 1 31.08.2026 -
Gianluigi Donnarumma Manchester City Ativo 172 / 177 40% 1 24.08.2026 -
Rafael Hornos Liverpool Montevideo Ativo 99 / 89 40% 1 05.08.2026 -
Gabriel Jesus Barcelona Ativo 144 / 147 40% 1 01.08.2026 -